Rankings de siempre
Mejores tiempos personales válidos de atleta a través de todos los eventos y temporadas. Cada atleta aparece una vez por división.
Busca por nombre y abre la página donde está clasificado este récord de división.
32,082 atletas clasificados
Los finishers de HYROX ELITE 15 se rastrean por separado — ver la clasificación Elite.
| Pos. | Pos. AG | Atleta | Nacionalidad | Categoría de edad | TiempoMejor tiempo | Diferencia |
|---|---|---|---|---|---|---|
| 23326 | #7401 | Seth HeerschapUSA · M 30-34 · AG #7401 | USA | M 30-34 | 1:34:54 | +41:39 |
| 23327 | #5286 | Bas VerboomNED · M 35-39 · AG #5286 | NED | M 35-39 | 1:34:54 | +41:39 |
| 23328 | #5287 | Luis ArgumedesPAN · M 35-39 · AG #5287 | PAN | M 35-39 | 1:34:54 | +41:39 |
| 23329 | #2232 | Steven ScheurwaterNED · M 16-24 · AG #2232 | NED | M 16-24 | 1:34:54 | +41:39 |
| 23330 | #7402 | Thibault FranciscoFRA · M 30-34 · AG #7402 | FRA | M 30-34 | 1:34:54 | +41:39 |
| 23331 | #5288 | Matthias PosthGER · M 35-39 · AG #5288 | GER | M 35-39 | 1:34:54 | +41:39 |
| 23332 | #5289 | Raymond FarquharGBR · M 35-39 · AG #5289 | GBR | M 35-39 | 1:34:54 | +41:39 |
| 23333 | #7403 | Baron BrinkmanUSA · M 30-34 · AG #7403 | USA | M 30-34 | 1:34:54 | +41:39 |
| 23334 | #5290 | Antonio PachecoUSA · M 35-39 · AG #5290 | USA | M 35-39 | 1:34:54 | +41:39 |
| 23335 | #1254 | Paulo MenezesBRA · M 45-49 · AG #1254 | BRA | M 45-49 | 1:34:54 | +41:39 |
| 23336 | #2769 | Michael WedamAUT · M 40-44 · AG #2769 | AUT | M 40-44 | 1:34:55 | +41:40 |
| 23337 | #580 | Sean PatrickUSA · M 50-54 · AG #580 | USA | M 50-54 | 1:34:55 | +41:40 |
| 23338 | #1255 | Nils SareczkiSUI · M 45-49 · AG #1255 | SUI | M 45-49 | 1:34:55 | +41:40 |
| 23339 | #5293 | Mikel Caballero GmezESP · M 35-39 · AG #5293 | ESP | M 35-39 | 1:34:55 | +41:40 |
| 23340 | #5292 | Florian PiepluFRA · M 35-39 · AG #5292 | FRA | M 35-39 | 1:34:55 | +41:40 |
| 23341 | #5294 | Adam PenningtonUSA · M 35-39 · AG #5294 | USA | M 35-39 | 1:34:55 | +41:40 |
| 23342 | #2233 | Simon NavermannGER · M 16-24 · AG #2233 | GER | M 16-24 | 1:34:55 | +41:40 |
| 23343 | #5583 | John BuenaventuraUSA · M 25-29 · AG #5583 | USA | M 25-29 | 1:34:56 | +41:41 |
| 23344 | #5295 | Gerardo AntonacciITA · M 35-39 · AG #5295 | ITA | M 35-39 | 1:34:56 | +41:41 |
| 23345 | #7405 | André PauraGER · M 30-34 · AG #7405 | GER | M 30-34 | 1:34:56 | +41:41 |
| 23346 | #7406 | Matthias SetzlerGER · M 30-34 · AG #7406 | GER | M 30-34 | 1:34:56 | +41:41 |
| 23347 | #7404 | Danny MongioviUSA · M 30-34 · AG #7404 | USA | M 30-34 | 1:34:56 | +41:41 |
| 23348 | #5296 | Remco HammerNED · M 35-39 · AG #5296 | NED | M 35-39 | 1:34:56 | +41:41 |
| 23349 | #7407 | Stefan TodorovBUL · M 30-34 · AG #7407 | BUL | M 30-34 | 1:34:56 | +41:41 |
| 23350 | #7408 | Erick JesúsMEX · M 30-34 · AG #7408 | MEX | M 30-34 | 1:34:56 | +41:41 |
Página 934 de 1,284